Time;durP1;ratioP1;P1;durP2;ratioP2;P2;SDS_P1;SDS_P2;PMS_P1;PMS_P2;Temp;Humidity;BMP_temperature;BMP_pressure;BME280_temperature;BME280_humidity;BME280_pressure;Samples;Min_cycle;Max_cycle;Signal;HPM_P1;HPM_P2
2023/06/08 00:00:10;;;;;;;15.25;13.65;;;19.70;62.70;;;;;;5005906;28;114472;-79
2023/06/08 00:02:38;;;;;;;14.93;13.32;;;19.60;63.80;;;;;;5004977;28;114452;-79
2023/06/08 00:05:13;;;;;;;17.23;12.85;;;19.60;63.80;;;;;;4987100;28;117065;-79
2023/06/08 00:07:45;;;;;;;12.80;10.35;;;19.60;64.00;;;;;;4948989;28;116159;-80
2023/06/08 00:10:12;;;;;;;13.45;11.23;;;19.60;63.30;;;;;;4972646;28;114603;-79
2023/06/08 00:12:39;;;;;;;10.98;9.18;;;19.50;63.60;;;;;;4946864;28;114381;-79
2023/06/08 00:15:07;;;;;;;11.63;10.30;;;19.60;63.00;;;;;;4963276;28;115079;-79
2023/06/08 00:17:35;;;;;;;11.95;10.70;;;19.70;63.00;;;;;;4962975;28;114949;-79
2023/06/08 00:20:08;;;;;;;14.38;12.27;;;19.60;63.30;;;;;;4949287;28;116315;-78
2023/06/08 00:22:36;;;;;;;15.20;12.15;;;19.70;63.70;;;;;;4973488;28;114427;-79
2023/06/08 00:25:05;;;;;;;13.52;10.68;;;19.60;63.50;;;;;;4963094;28;114910;-79
2023/06/08 00:27:32;;;;;;;15.43;11.80;;;19.60;63.10;;;;;;4961851;28;114808;-79
2023/06/08 00:29:59;;;;;;;15.10;13.60;;;19.60;63.30;;;;;;4915508;28;114447;-79
2023/06/08 00:32:27;;;;;;;12.43;11.13;;;19.60;63.70;;;;;;4931578;28;114611;-79
2023/06/08 00:34:54;;;;;;;14.95;12.38;;;19.50;63.50;;;;;;4946864;28;115639;-79
2023/06/08 00:37:23;;;;;;;12.90;10.90;;;19.50;63.70;;;;;;4966857;28;114821;-79
2023/06/08 00:39:50;;;;;;;16.63;14.70;;;19.50;63.30;;;;;;4984209;28;114237;-79
2023/06/08 00:42:17;;;;;;;14.02;12.38;;;19.50;64.10;;;;;;4982871;28;114679;-79
2023/06/08 00:44:44;;;;;;;11.95;10.60;;;19.50;63.90;;;;;;4984790;28;118496;-78
2023/06/08 00:47:11;;;;;;;13.77;12.27;;;19.50;63.50;;;;;;4984804;28;115347;-80
2023/06/08 00:49:38;;;;;;;12.60;11.15;;;19.50;63.80;;;;;;4994521;28;114440;-79
2023/06/08 00:52:06;;;;;;;13.88;12.35;;;19.40;63.60;;;;;;5007820;28;117222;-79
2023/06/08 00:54:36;;;;;;;16.35;13.55;;;19.50;63.70;;;;;;4989739;28;116015;-81
2023/06/08 00:57:05;;;;;;;13.15;11.18;;;19.50;64.10;;;;;;5007612;28;116038;-81
2023/06/08 00:59:32;;;;;;;17.27;12.73;;;19.40;63.60;;;;;;5004971;28;114661;-80
2023/06/08 01:01:59;;;;;;;13.70;12.18;;;19.40;63.90;;;;;;4987859;28;114321;-80
2023/06/08 01:04:28;;;;;;;15.13;10.57;;;19.40;63.70;;;;;;4970487;28;115366;-80
2023/06/08 01:07:14;;;;;;;14.63;13.07;;;19.40;63.20;;;;;;4986802;28;114838;-81
2023/06/08 01:09:49;;;;;;;15.15;12.68;;;19.30;63.60;;;;;;4988609;28;117545;-80
2023/06/08 01:12:45;;;;;;;14.48;11.13;;;19.30;64.00;;;;;;4987383;28;114482;-80
2023/06/08 01:15:23;;;;;;;14.35;12.85;;;19.30;63.50;;;;;;4986562;28;115003;-80
2023/06/08 01:17:52;;;;;;;10.32;9.02;;;19.20;64.20;;;;;;4986430;28;115606;-80
2023/06/08 01:20:29;;;;;;;12.23;10.93;;;19.20;63.60;;;;;;4987652;28;114419;-80
2023/06/08 01:23:34;;;;;;;12.48;10.80;;;19.20;63.90;;;;;;4992415;28;114395;-80
2023/06/08 01:26:02;;;;;;;13.32;11.93;;;19.30;63.40;;;;;;4996933;28;115498;-80
2023/06/08 01:28:30;;;;;;;14.65;13.25;;;19.20;64.00;;;;;;4969937;28;115947;-80
2023/06/08 01:30:58;;;;;;;13.48;11.93;;;19.10;64.10;;;;;;4987692;28;114414;-81
2023/06/08 01:33:28;;;;;;;12.25;10.43;;;19.00;64.00;;;;;;4990046;28;114478;-80
2023/06/08 01:36:03;;;;;;;10.63;9.20;;;19.10;63.70;;;;;;4989874;28;115595;-80
2023/06/08 01:38:47;;;;;;;12.88;11.57;;;19.10;63.60;;;;;;5006174;28;114682;-80
2023/06/08 01:41:23;;;;;;;12.57;11.15;;;19.20;63.40;;;;;;4992178;28;114358;-80
2023/06/08 01:43:51;;;;;;;11.98;9.43;;;19.20;63.70;;;;;;4967354;28;114537;-80
2023/06/08 01:46:20;;;;;;;10.90;8.73;;;19.20;63.50;;;;;;4987032;28;115026;-80
2023/06/08 01:48:47;;;;;;;12.73;10.35;;;19.20;63.30;;;;;;4987023;28;115059;-81
2023/06/08 01:51:15;;;;;;;14.00;11.02;;;19.20;63.30;;;;;;4987168;28;114773;-80
2023/06/08 01:53:44;;;;;;;10.95;9.82;;;19.20;63.30;;;;;;4986809;28;114418;-81
2023/06/08 01:56:13;;;;;;;11.73;9.60;;;19.30;63.30;;;;;;4986821;28;115240;-80
2023/06/08 01:58:40;;;;;;;12.23;10.90;;;19.20;63.10;;;;;;5000630;28;116693;-80
2023/06/08 02:01:07;;;;;;;13.68;12.27;;;19.20;63.10;;;;;;4983573;28;114332;-79
2023/06/08 02:03:34;;;;;;;14.48;12.73;;;19.20;63.20;;;;;;4988073;28;114490;-80
2023/06/08 02:06:02;;;;;;;12.23;9.82;;;19.20;63.20;;;;;;4986612;28;114831;-80
2023/06/08 02:08:32;;;;;;;15.35;12.27;;;19.20;63.00;;;;;;5002709;28;115232;-80
2023/06/08 02:10:59;;;;;;;12.75;9.82;;;19.20;63.10;;;;;;4994822;28;114372;-80
2023/06/08 02:13:27;;;;;;;11.32;10.13;;;19.10;62.90;;;;;;5008210;28;114231;-80
2023/06/08 02:15:57;;;;;;;11.55;9.80;;;19.10;63.00;;;;;;5005742;28;115132;-79
2023/06/08 02:18:25;;;;;;;12.15;10.27;;;19.10;63.00;;;;;;5009284;28;114559;-80
2023/06/08 02:20:53;;;;;;;17.38;12.95;;;19.10;63.00;;;;;;5010041;28;114439;-79
2023/06/08 02:23:20;;;;;;;11.27;10.10;;;19.20;63.20;;;;;;5006373;28;114355;-79
2023/06/08 02:25:50;;;;;;;16.90;14.85;;;19.20;62.90;;;;;;4958727;28;117450;-80
2023/06/08 02:28:17;;;;;;;18.35;13.48;;;19.10;63.20;;;;;;4985863;28;114436;-79
2023/06/08 02:30:44;;;;;;;14.25;11.48;;;19.00;63.30;;;;;;4995711;28;114182;-80
2023/06/08 02:33:13;;;;;;;20.45;15.90;;;18.90;63.50;;;;;;5007491;28;114612;-79
2023/06/08 02:35:40;;;;;;;17.73;14.45;;;18.90;63.70;;;;;;4989141;28;114908;-80
2023/06/08 02:38:07;;;;;;;13.23;11.23;;;18.90;63.60;;;;;;5005639;28;114681;-79
2023/06/08 02:40:35;;;;;;;13.05;10.10;;;18.90;63.40;;;;;;4990219;28;114247;-82
2023/06/08 02:43:02;;;;;;;24.25;16.67;;;19.00;63.20;;;;;;4980829;28;114122;-80
2023/06/08 02:45:30;;;;;;;18.35;13.02;;;19.10;63.50;;;;;;4990584;28;115220;-81
2023/06/08 02:47:58;;;;;;;15.57;12.43;;;19.20;63.20;;;;;;5005067;28;114606;-80
2023/06/08 02:50:26;;;;;;;16.50;12.48;;;19.20;63.20;;;;;;5006984;28;114532;-81
2023/06/08 02:52:53;;;;;;;12.75;10.55;;;19.20;63.20;;;;;;5007427;28;114429;-80
2023/06/08 02:55:22;;;;;;;14.23;11.00;;;19.10;63.00;;;;;;5006307;28;114637;-80
2023/06/08 02:57:51;;;;;;;20.20;12.77;;;19.10;62.90;;;;;;5004328;28;114671;-81
2023/06/08 03:00:23;;;;;;;13.23;10.80;;;19.20;63.00;;;;;;5005591;28;116154;-80
2023/06/08 03:03:10;;;;;;;14.95;12.75;;;19.20;62.70;;;;;;5006530;28;114204;-80
2023/06/08 03:05:39;;;;;;;17.05;13.27;;;19.20;62.80;;;;;;5003782;28;114963;-80
2023/06/08 03:08:08;;;;;;;15.18;10.85;;;19.20;62.80;;;;;;4973502;28;115764;-80
2023/06/08 03:10:35;;;;;;;13.25;11.82;;;19.20;62.80;;;;;;4983942;28;114630;-80
2023/06/08 03:13:06;;;;;;;12.40;10.73;;;19.10;62.70;;;;;;4953169;28;114531;-80
2023/06/08 03:15:37;;;;;;;14.43;12.35;;;19.10;62.80;;;;;;4968753;28;116905;-80
2023/06/08 03:18:05;;;;;;;14.40;12.90;;;19.10;62.80;;;;;;4968489;28;114426;-80
2023/06/08 03:20:34;;;;;;;16.33;14.27;;;19.10;62.60;;;;;;5000829;28;114517;-80
2023/06/08 03:23:07;;;;;;;15.07;13.57;;;19.20;62.50;;;;;;4984930;28;114255;-81
2023/06/08 03:25:36;;;;;;;13.90;12.30;;;19.10;62.50;;;;;;4967453;28;116906;-81
2023/06/08 03:28:05;;;;;;;17.60;14.43;;;19.10;62.70;;;;;;4968164;28;114619;-80
2023/06/08 03:30:32;;;;;;;21.05;16.95;;;19.10;62.80;;;;;;4968968;28;114343;-80
2023/06/08 03:33:05;;;;;;;16.83;13.65;;;19.00;62.80;;;;;;4969322;28;114473;-81
2023/06/08 03:35:53;;;;;;;16.55;14.85;;;19.00;62.90;;;;;;4984662;28;114939;-80
2023/06/08 03:38:23;;;;;;;16.95;14.77;;;18.90;63.20;;;;;;4968432;28;114762;-80
2023/06/08 03:40:53;;;;;;;14.70;12.40;;;19.00;63.10;;;;;;4969047;28;114322;-80
2023/06/08 03:43:21;;;;;;;14.98;12.82;;;18.90;63.00;;;;;;4985488;28;114426;-80
2023/06/08 03:45:49;;;;;;;13.60;11.00;;;19.00;63.00;;;;;;5000559;28;115022;-80
2023/06/08 03:48:16;;;;;;;15.30;12.00;;;19.00;63.00;;;;;;4983696;28;115122;-80
2023/06/08 03:50:51;;;;;;;14.20;12.20;;;18.90;63.00;;;;;;4983096;28;114400;-80
2023/06/08 03:53:21;;;;;;;15.05;12.20;;;18.90;63.20;;;;;;4984858;28;114462;-81
2023/06/08 03:55:48;;;;;;;13.50;12.10;;;18.90;63.20;;;;;;4992439;28;116802;-81
2023/06/08 03:58:16;;;;;;;14.73;12.07;;;19.00;63.20;;;;;;5003478;28;115186;-80
2023/06/08 04:00:45;;;;;;;12.95;11.27;;;19.00;63.10;;;;;;5021100;28;115320;-80
2023/06/08 04:03:14;;;;;;;15.07;11.98;;;18.90;63.00;;;;;;5021746;28;114745;-80
2023/06/08 04:05:42;;;;;;;18.23;14.30;;;19.00;63.00;;;;;;5003510;28;115104;-80
2023/06/08 04:08:09;;;;;;;15.80;12.52;;;19.10;63.00;;;;;;4992677;28;115283;-81
2023/06/08 04:10:36;;;;;;;15.82;12.70;;;19.10;62.70;;;;;;5004437;28;114137;-80
2023/06/08 04:13:04;;;;;;;13.82;11.75;;;19.20;62.60;;;;;;5021250;28;114587;-80
2023/06/08 04:15:33;;;;;;;20.75;16.42;;;19.30;62.40;;;;;;4988431;28;118467;-81
2023/06/08 04:18:02;;;;;;;15.27;12.77;;;19.30;63.10;;;;;;5014651;28;114691;-81
2023/06/08 04:20:29;;;;;;;20.35;14.82;;;19.30;62.40;;;;;;4989040;28;115648;-80
2023/06/08 04:22:57;;;;;;;20.13;17.15;;;19.30;62.90;;;;;;4982746;28;114133;-81
2023/06/08 04:25:25;;;;;;;18.33;14.98;;;19.30;63.20;;;;;;4987630;28;114813;-79
2023/06/08 04:27:54;;;;;;;19.40;13.90;;;19.30;62.90;;;;;;4987262;28;114671;-79
2023/06/08 04:30:22;;;;;;;19.73;14.02;;;19.30;62.60;;;;;;5005110;28;114191;-80
2023/06/08 04:32:50;;;;;;;22.50;18.92;;;19.30;62.90;;;;;;4988635;28;114430;-80
2023/06/08 04:35:18;;;;;;;17.90;14.88;;;19.30;63.70;;;;;;4971371;28;115174;-80
2023/06/08 04:37:45;;;;;;;13.43;11.40;;;19.30;63.20;;;;;;4997668;28;114631;-79
2023/06/08 04:40:12;;;;;;;18.05;14.13;;;19.30;62.60;;;;;;5010870;28;114265;-81
2023/06/08 04:42:41;;;;;;;21.00;15.98;;;19.30;62.70;;;;;;5012477;28;115346;-80
2023/06/08 04:45:11;;;;;;;16.00;12.93;;;19.40;62.80;;;;;;4992468;28;114941;-79
2023/06/08 04:47:41;;;;;;;16.70;13.30;;;19.40;62.30;;;;;;5006882;28;115410;-80
2023/06/08 04:50:09;;;;;;;19.70;15.30;;;19.50;62.10;;;;;;5008130;28;114648;-80
2023/06/08 04:52:40;;;;;;;24.73;18.73;;;19.50;62.30;;;;;;5009171;28;114317;-80
2023/06/08 04:55:12;;;;;;;27.00;19.60;;;19.60;62.70;;;;;;5007320;28;114847;-79
2023/06/08 04:57:41;;;;;;;22.00;16.80;;;19.50;62.80;;;;;;5007533;28;114654;-79
2023/06/08 05:00:09;;;;;;;32.47;22.40;;;19.50;62.60;;;;;;5024701;28;114567;-79
2023/06/08 05:02:44;;;;;;;36.47;26.13;;;19.50;62.90;;;;;;4991263;28;114671;-80
2023/06/08 05:05:12;;;;;;;19.73;14.57;;;19.60;63.00;;;;;;5008132;28;114981;-80
2023/06/08 05:07:41;;;;;;;30.83;23.45;;;19.60;62.10;;;;;;5006371;28;114657;-80
2023/06/08 05:10:11;;;;;;;18.25;14.35;;;19.60;63.00;;;;;;5007181;28;114693;-80
2023/06/08 05:12:38;;;;;;;15.70;12.90;;;19.60;62.00;;;;;;4984625;28;114496;-81
2023/06/08 05:15:06;;;;;;;21.98;17.63;;;19.60;61.70;;;;;;4986920;28;115041;-80
2023/06/08 05:17:33;;;;;;;18.13;13.60;;;19.60;62.30;;;;;;4986805;28;115151;-79
2023/06/08 05:20:01;;;;;;;18.45;13.82;;;19.60;61.80;;;;;;4987539;28;114314;-79
2023/06/08 05:22:29;;;;;;;19.35;17.25;;;19.70;62.00;;;;;;4986683;28;114497;-80
2023/06/08 05:24:57;;;;;;;22.08;18.95;;;19.60;62.40;;;;;;4986717;28;115236;-80
2023/06/08 05:27:25;;;;;;;21.20;16.67;;;19.50;63.00;;;;;;4985200;28;114702;-82
2023/06/08 05:29:52;;;;;;;27.75;21.60;;;19.50;63.10;;;;;;4990138;28;114446;-80
2023/06/08 05:32:21;;;;;;;31.30;23.50;;;19.50;63.90;;;;;;5007407;28;114239;-80
2023/06/08 05:34:50;;;;;;;27.42;21.52;;;19.50;63.80;;;;;;5005138;28;114975;-80
2023/06/08 05:37:21;;;;;;;19.00;14.70;;;19.50;63.70;;;;;;4980610;28;116280;-80
2023/06/08 05:39:50;;;;;;;30.80;23.45;;;19.50;62.80;;;;;;4985100;28;114417;-79
2023/06/08 05:42:18;;;;;;;20.08;15.63;;;19.50;63.70;;;;;;4985423;28;114252;-78
2023/06/08 05:45:49;;;;;;;29.38;20.73;;;19.50;62.70;;;;;;4985990;28;115531;-78
2023/06/08 05:52:51;;;;;;;35.17;24.75;;;19.60;63.70;;;;;;4986336;28;114248;-78
2023/06/08 05:55:20;;;;;;;22.80;17.63;;;19.50;64.60;;;;;;4985016;28;114224;-79
2023/06/08 05:57:47;;;;;;;22.35;17.25;;;19.70;63.60;;;;;;4984316;28;116935;-78
2023/06/08 06:00:15;;;;;;;27.10;21.23;;;19.80;63.30;;;;;;4985680;28;114586;-78
2023/06/08 06:02:42;;;;;;;25.50;18.35;;;19.90;64.20;;;;;;4968108;28;114308;-78
2023/06/08 06:05:09;;;;;;;27.65;22.05;;;20.00;63.70;;;;;;4986423;28;116210;-78
2023/06/08 06:07:37;;;;;;;21.05;16.50;;;20.10;64.20;;;;;;4983659;28;114408;-79
2023/06/08 06:10:05;;;;;;;22.45;18.48;;;20.10;62.60;;;;;;4981624;28;114792;-79
2023/06/08 06:12:34;;;;;;;17.45;14.38;;;20.10;63.20;;;;;;4981462;28;114680;-79
2023/06/08 06:15:02;;;;;;;23.05;18.60;;;20.00;61.90;;;;;;4984704;28;114197;-79
2023/06/08 06:17:30;;;;;;;20.27;16.05;;;20.00;63.40;;;;;;4985608;28;115919;-79
2023/06/08 06:19:57;;;;;;;17.98;15.02;;;20.00;62.90;;;;;;4974285;28;115926;-79
2023/06/08 06:22:25;;;;;;;17.25;14.57;;;20.00;62.40;;;;;;5006157;28;114493;-79
2023/06/08 06:24:53;;;;;;;17.20;15.10;;;20.00;62.20;;;;;;5005235;28;114505;-79
2023/06/08 06:27:20;;;;;;;21.13;18.30;;;20.00;62.70;;;;;;4987245;28;118082;-79
2023/06/08 06:29:51;;;;;;;20.33;17.42;;;20.20;62.60;;;;;;4985904;28;115893;-78
2023/06/08 06:32:20;;;;;;;23.65;21.15;;;20.20;62.90;;;;;;4981651;28;117409;-78
2023/06/08 06:34:47;;;;;;;20.27;15.70;;;20.20;62.90;;;;;;4986087;28;114318;-79
2023/06/08 06:37:14;;;;;;;21.45;17.92;;;20.20;61.80;;;;;;4981469;28;114955;-80
2023/06/08 06:39:41;;;;;;;21.52;18.80;;;20.10;62.40;;;;;;4979076;28;114727;-79
2023/06/08 06:42:09;;;;;;;27.25;23.38;;;20.20;62.60;;;;;;4983013;28;114292;-79
2023/06/08 06:44:43;;;;;;;28.35;24.20;;;20.10;63.20;;;;;;5000460;28;114603;-79
2023/06/08 06:47:11;;;;;;;22.02;19.38;;;20.10;63.00;;;;;;4978832;28;115007;-79
2023/06/08 06:49:38;;;;;;;20.48;17.65;;;20.10;62.30;;;;;;4984197;28;114832;-79
2023/06/08 06:52:05;;;;;;;23.10;20.42;;;20.10;61.80;;;;;;4983801;28;114528;-79
2023/06/08 06:54:32;;;;;;;20.05;17.30;;;20.10;62.00;;;;;;4984460;28;114461;-79
2023/06/08 06:57:00;;;;;;;21.45;18.17;;;20.30;61.40;;;;;;4983113;28;114958;-78
2023/06/08 06:59:28;;;;;;;19.77;16.45;;;20.40;60.40;;;;;;4981596;28;115877;-79
2023/06/08 07:01:55;;;;;;;20.45;18.25;;;20.40;59.90;;;;;;4993455;28;114376;-79
2023/06/08 07:04:22;;;;;;;16.83;15.00;;;20.40;59.60;;;;;;4988867;28;114066;-78
2023/06/08 07:06:53;;;;;;;15.27;13.43;;;20.60;59.20;;;;;;4982933;28;116115;-78
2023/06/08 07:09:24;;;;;;;17.55;14.00;;;20.60;58.70;;;;;;4981966;28;114644;-79
2023/06/08 07:11:52;;;;;;;18.90;16.00;;;20.60;58.30;;;;;;4979960;28;114297;-79
2023/06/08 07:14:39;;;;;;;12.55;11.07;;;20.70;58.40;;;;;;4984852;28;114349;-78
2023/06/08 07:17:06;;;;;;;15.02;11.27;;;20.70;56.70;;;;;;4966800;28;114931;-79
2023/06/08 07:19:33;;;;;;;13.88;12.38;;;20.80;56.70;;;;;;4982553;28;115709;-78
2023/06/08 07:22:01;;;;;;;13.43;11.45;;;20.70;56.60;;;;;;4982796;28;114492;-78
2023/06/08 07:24:32;;;;;;;13.20;11.80;;;20.70;57.00;;;;;;4985548;28;114399;-78
2023/06/08 07:27:20;;;;;;;13.52;12.00;;;20.80;57.30;;;;;;4984589;28;115223;-79
2023/06/08 07:29:48;;;;;;;12.70;11.20;;;20.90;58.10;;;;;;4967357;28;114589;-78
2023/06/08 07:32:18;;;;;;;12.27;9.43;;;21.00;56.60;;;;;;4985092;28;114551;-78
2023/06/08 07:34:47;;;;;;;10.10;8.95;;;21.00;55.80;;;;;;4984355;28;114366;-79
2023/06/08 07:37:14;;;;;;;12.43;10.48;;;21.10;55.40;;;;;;4983497;28;114973;-79
2023/06/08 07:39:41;;;;;;;11.65;9.15;;;21.10;55.80;;;;;;4982863;28;117136;-79
2023/06/08 07:42:08;;;;;;;10.60;9.18;;;21.20;55.80;;;;;;4984442;28;114191;-79
2023/06/08 07:44:36;;;;;;;11.25;10.05;;;21.30;55.30;;;;;;4983510;28;114595;-79
2023/06/08 07:47:04;;;;;;;12.32;9.80;;;21.20;55.80;;;;;;4997929;28;115023;-80
2023/06/08 07:49:32;;;;;;;8.93;8.02;;;21.30;56.20;;;;;;4982843;28;114635;-79
2023/06/08 07:52:01;;;;;;;9.63;8.13;;;21.50;54.70;;;;;;4981399;28;114449;-79
2023/06/08 07:54:28;;;;;;;9.10;8.18;;;21.50;54.40;;;;;;4981554;28;114620;-80
2023/06/08 07:56:55;;;;;;;10.15;8.60;;;21.50;54.20;;;;;;4982090;28;116731;-80
2023/06/08 07:59:22;;;;;;;9.02;7.97;;;21.50;55.00;;;;;;4982473;28;114889;-79
2023/06/08 08:01:49;;;;;;;8.90;7.43;;;21.60;54.90;;;;;;4983186;28;114820;-78
2023/06/08 08:04:16;;;;;;;7.32;6.05;;;21.70;53.80;;;;;;4998187;28;114437;-78
2023/06/08 08:06:44;;;;;;;6.97;5.60;;;21.80;52.80;;;;;;4986230;28;115665;-78
2023/06/08 08:09:11;;;;;;;7.57;6.22;;;21.80;52.10;;;;;;4980795;28;114646;-79
2023/06/08 08:11:44;;;;;;;6.93;6.18;;;21.80;52.20;;;;;;4990779;28;117434;-79
2023/06/08 08:14:15;;;;;;;8.35;7.20;;;21.70;52.20;;;;;;4947228;28;114888;-80
2023/06/08 08:16:42;;;;;;;8.95;7.15;;;21.70;52.70;;;;;;4962850;28;115439;-78
2023/06/08 08:19:10;;;;;;;11.20;8.23;;;21.80;53.00;;;;;;4955658;28;114517;-78
2023/06/08 08:21:38;;;;;;;10.20;7.50;;;21.90;53.00;;;;;;4962564;28;114582;-79
2023/06/08 08:24:06;;;;;;;9.30;8.40;;;22.00;53.10;;;;;;4960968;28;116207;-78
2023/06/08 08:26:34;;;;;;;9.77;7.65;;;22.10;52.90;;;;;;4961143;28;115127;-79
2023/06/08 08:29:02;;;;;;;11.63;7.90;;;22.00;53.10;;;;;;4961524;28;114610;-80
2023/06/08 08:31:42;;;;;;;8.52;6.63;;;22.10;52.90;;;;;;4948456;28;114336;-80
2023/06/08 08:34:12;;;;;;;8.98;7.45;;;22.10;52.90;;;;;;4943328;28;114701;-78
2023/06/08 08:36:40;;;;;;;8.52;7.15;;;22.10;52.80;;;;;;4961946;28;115524;-80
2023/06/08 08:39:11;;;;;;;9.10;8.10;;;22.20;52.40;;;;;;4929022;28;114699;-80
2023/06/08 08:41:40;;;;;;;10.35;7.95;;;22.20;52.50;;;;;;4962571;28;114661;-78
2023/06/08 08:44:14;;;;;;;8.60;7.38;;;22.20;52.70;;;;;;4965882;28;114822;-79
2023/06/08 08:46:42;;;;;;;8.90;7.63;;;22.30;52.00;;;;;;4990430;28;114905;-80
2023/06/08 08:49:15;;;;;;;9.25;6.80;;;22.30;52.00;;;;;;4983121;28;115583;-79
2023/06/08 08:51:49;;;;;;;8.23;7.40;;;22.30;52.30;;;;;;4979985;28;114518;-79
2023/06/08 08:54:25;;;;;;;8.75;6.80;;;22.30;51.60;;;;;;4984872;28;114613;-79
2023/06/08 08:57:09;;;;;;;9.85;6.97;;;22.30;52.30;;;;;;4983695;28;115469;-80
2023/06/08 08:59:40;;;;;;;7.55;6.30;;;22.30;52.10;;;;;;4965900;28;117596;-79
2023/06/08 09:02:07;;;;;;;7.22;5.93;;;22.20;51.50;;;;;;4983050;28;114437;-79
2023/06/08 09:04:37;;;;;;;6.72;5.75;;;22.10;51.20;;;;;;4983167;28;115770;-79
2023/06/08 09:07:10;;;;;;;7.20;6.10;;;22.00;51.70;;;;;;4983371;28;114929;-80
2023/06/08 09:09:37;;;;;;;7.43;5.80;;;21.90;51.80;;;;;;4984734;28;114591;-80
2023/06/08 09:12:08;;;;;;;6.15;5.03;;;21.80;52.10;;;;;;4987218;28;114350;-80
2023/06/08 09:14:41;;;;;;;6.07;5.05;;;21.80;51.50;;;;;;4977565;28;114620;-79
2023/06/08 09:17:09;;;;;;;6.18;5.00;;;21.80;51.30;;;;;;4978676;28;114870;-79
2023/06/08 09:19:37;;;;;;;5.45;4.38;;;21.80;51.60;;;;;;4972991;28;114723;-79
2023/06/08 09:22:07;;;;;;;5.65;4.70;;;21.90;50.10;;;;;;4986572;28;114369;-78
2023/06/08 09:24:38;;;;;;;5.70;4.53;;;22.00;50.50;;;;;;4986358;28;114327;-79
2023/06/08 09:27:06;;;;;;;6.22;4.88;;;22.00;50.20;;;;;;4985066;28;114980;-79
2023/06/08 09:29:44;;;;;;;5.50;4.88;;;22.00;50.70;;;;;;4963375;28;114734;-78
2023/06/08 09:32:16;;;;;;;5.93;4.88;;;22.00;51.00;;;;;;4985870;28;114426;-78
2023/06/08 09:34:51;;;;;;;6.38;4.78;;;22.10;50.90;;;;;;4986638;28;114523;-79
2023/06/08 09:37:19;;;;;;;6.45;4.60;;;22.20;50.00;;;;;;4984549;28;115486;-79
2023/06/08 09:39:46;;;;;;;5.90;5.30;;;22.20;50.20;;;;;;4983565;28;116966;-80
2023/06/08 09:42:15;;;;;;;5.50;4.55;;;22.20;50.30;;;;;;4983968;28;114373;-80
2023/06/08 09:44:42;;;;;;;5.15;4.35;;;22.10;50.10;;;;;;4987067;28;114302;-80
2023/06/08 09:47:25;;;;;;;5.40;4.43;;;22.10;50.00;;;;;;4985073;28;115457;-79
2023/06/08 09:49:54;;;;;;;5.25;4.20;;;22.20;49.90;;;;;;4983895;28;114714;-79
2023/06/08 09:52:23;;;;;;;6.15;4.50;;;22.30;49.50;;;;;;4986413;28;114222;-79
2023/06/08 09:54:52;;;;;;;5.05;3.95;;;22.20;49.60;;;;;;4952842;28;114243;-79
2023/06/08 09:57:20;;;;;;;5.20;4.20;;;22.30;49.30;;;;;;4983191;28;115420;-79
2023/06/08 09:59:56;;;;;;;5.93;4.28;;;22.30;49.00;;;;;;4968839;28;117359;-79
2023/06/08 10:02:34;;;;;;;5.28;4.03;;;22.30;49.50;;;;;;4986121;28;114370;-79
2023/06/08 10:05:10;;;;;;;4.55;3.90;;;22.40;49.30;;;;;;4985226;28;114407;-79
2023/06/08 10:07:44;;;;;;;6.28;4.07;;;22.40;49.30;;;;;;4985057;28;114968;-79
2023/06/08 10:10:17;;;;;;;5.10;3.83;;;22.40;49.00;;;;;;4985290;28;114722;-80
2023/06/08 10:12:45;;;;;;;4.68;3.97;;;22.50;48.60;;;;;;4987932;28;114487;-79
2023/06/08 10:15:12;;;;;;;4.82;3.80;;;22.40;48.70;;;;;;4985903;28;114182;-79
2023/06/08 10:17:39;;;;;;;4.88;3.95;;;22.30;49.20;;;;;;5002003;28;118995;-79
2023/06/08 10:20:12;;;;;;;4.22;3.63;;;22.30;49.00;;;;;;4971698;28;114607;-79
2023/06/08 10:22:40;;;;;;;4.90;3.63;;;22.30;49.10;;;;;;5006820;28;114412;-79
2023/06/08 10:25:08;;;;;;;5.07;3.72;;;22.30;49.30;;;;;;4960843;28;114573;-79
2023/06/08 10:27:36;;;;;;;5.00;3.90;;;22.40;48.90;;;;;;4983757;28;115530;-79
2023/06/08 10:30:05;;;;;;;4.25;3.70;;;22.60;49.00;;;;;;4985973;28;114681;-79
2023/06/08 10:32:42;;;;;;;5.85;4.15;;;22.60;48.50;;;;;;4968776;28;114730;-79
2023/06/08 10:35:10;;;;;;;4.88;3.95;;;22.60;48.80;;;;;;4985831;28;114444;-79
2023/06/08 10:37:38;;;;;;;4.70;3.70;;;22.60;48.30;;;;;;4983738;28;114989;-79
2023/06/08 10:40:08;;;;;;;6.13;4.35;;;22.50;48.20;;;;;;4985140;28;114618;-80
2023/06/08 10:42:35;;;;;;;6.40;4.50;;;22.50;48.50;;;;;;4984635;28;114325;-80
2023/06/08 10:45:04;;;;;;;4.20;3.60;;;22.60;48.70;;;;;;4968710;28;114445;-79
2023/06/08 10:47:35;;;;;;;5.80;4.45;;;22.70;48.60;;;;;;4984307;28;115749;-79
2023/06/08 10:50:05;;;;;;;4.90;4.40;;;22.70;48.60;;;;;;4985159;28;115403;-79
2023/06/08 10:52:40;;;;;;;4.65;3.90;;;22.50;49.00;;;;;;4984598;28;114612;-79
2023/06/08 10:55:16;;;;;;;6.07;4.03;;;22.50;49.10;;;;;;4985826;28;116357;-80
2023/06/08 10:57:44;;;;;;;5.30;4.28;;;22.30;49.40;;;;;;4984098;28;116249;-79
2023/06/08 11:00:22;;;;;;;4.88;3.65;;;22.30;49.60;;;;;;4978119;28;114536;-79
2023/06/08 11:02:49;;;;;;;4.75;3.88;;;22.30;49.20;;;;;;4968410;28;114403;-80
2023/06/08 11:05:16;;;;;;;7.38;4.60;;;22.40;49.10;;;;;;4984861;28;114348;-79
2023/06/08 11:07:44;;;;;;;5.03;3.97;;;22.40;49.10;;;;;;4967376;28;114897;-79
2023/06/08 11:10:11;;;;;;;5.35;4.38;;;22.40;49.20;;;;;;4985550;28;114240;-80
2023/06/08 11:12:38;;;;;;;4.50;3.80;;;22.40;48.70;;;;;;4984409;28;114400;-79
2023/06/08 11:15:07;;;;;;;4.85;4.07;;;22.40;48.70;;;;;;4984731;28;114336;-79
2023/06/08 11:17:43;;;;;;;5.25;4.25;;;22.50;48.80;;;;;;4985313;28;115056;-80
2023/06/08 11:20:15;;;;;;;5.00;4.20;;;22.60;48.80;;;;;;4966769;28;114693;-79
2023/06/08 11:22:43;;;;;;;5.50;4.63;;;22.40;49.10;;;;;;4985263;28;115847;-80
2023/06/08 11:25:10;;;;;;;5.70;4.20;;;22.30;49.80;;;;;;4984216;28;114548;-80
2023/06/08 11:27:44;;;;;;;5.00;4.30;;;22.40;49.70;;;;;;4992816;28;115394;-79
2023/06/08 11:30:17;;;;;;;5.22;4.72;;;22.40;49.90;;;;;;5004770;28;115517;-79
2023/06/08 11:32:49;;;;;;;6.60;4.65;;;22.40;49.80;;;;;;4986456;28;114437;-80
2023/06/08 11:35:20;;;;;;;5.45;4.95;;;22.30;50.00;;;;;;4962298;28;114544;-79
2023/06/08 11:37:52;;;;;;;6.53;5.32;;;22.30;50.30;;;;;;4984584;28;114979;-79
2023/06/08 11:40:19;;;;;;;6.70;5.15;;;22.20;50.80;;;;;;4984565;28;114637;-80
2023/06/08 11:42:47;;;;;;;5.43;4.75;;;22.10;50.80;;;;;;4985671;28;114469;-79
2023/06/08 11:45:14;;;;;;;6.03;5.07;;;22.20;50.60;;;;;;4993108;28;114374;-79
2023/06/08 11:47:42;;;;;;;5.93;4.80;;;22.20;50.50;;;;;;4982818;28;115361;-79
2023/06/08 11:50:10;;;;;;;6.20;4.28;;;22.10;50.10;;;;;;4983263;28;116417;-79
2023/06/08 11:52:41;;;;;;;5.63;4.10;;;22.00;49.30;;;;;;4988451;28;114274;-79
2023/06/08 11:55:15;;;;;;;5.47;4.22;;;22.10;49.50;;;;;;4994931;28;118695;-79
2023/06/08 11:57:44;;;;;;;5.15;4.45;;;22.10;49.50;;;;;;4967428;28;115662;-80
2023/06/08 12:00:22;;;;;;;5.18;4.10;;;22.20;49.50;;;;;;4982214;28;114510;-80
2023/06/08 12:02:50;;;;;;;4.80;4.05;;;22.20;49.40;;;;;;4983189;28;114435;-78
2023/06/08 12:05:19;;;;;;;5.72;3.78;;;22.30;49.00;;;;;;4984792;28;114469;-79
2023/06/08 12:08:03;;;;;;;4.80;3.95;;;22.40;48.10;;;;;;4983132;28;115009;-81
2023/06/08 12:10:38;;;;;;;4.97;3.95;;;22.40;48.40;;;;;;4982305;28;115946;-80
2023/06/08 12:13:16;;;;;;;7.00;4.22;;;22.30;48.40;;;;;;4991349;28;117539;-79
2023/06/08 12:15:47;;;;;;;5.55;3.63;;;22.30;48.20;;;;;;4984372;28;114512;-81
2023/06/08 12:18:16;;;;;;;5.38;4.25;;;22.30;48.20;;;;;;4982921;28;118525;-80
2023/06/08 12:20:44;;;;;;;5.80;4.40;;;22.40;48.20;;;;;;4977332;28;114550;-80
2023/06/08 12:23:12;;;;;;;5.90;4.18;;;22.50;48.30;;;;;;4983485;28;114339;-79
2023/06/08 12:25:42;;;;;;;5.38;4.40;;;22.50;48.00;;;;;;4975465;28;114283;-80
2023/06/08 12:28:20;;;;;;;6.43;4.43;;;22.50;48.30;;;;;;4985463;28;115398;-79
2023/06/08 12:30:47;;;;;;;6.47;4.72;;;22.40;48.60;;;;;;4983179;28;114616;-79
2023/06/08 12:33:18;;;;;;;5.18;4.55;;;22.30;48.80;;;;;;4984754;28;114466;-80
2023/06/08 12:35:49;;;;;;;5.40;4.05;;;22.30;48.90;;;;;;4965989;28;114351;-80
2023/06/08 12:38:24;;;;;;;4.90;4.40;;;22.30;48.70;;;;;;4965181;28;119130;-78
2023/06/08 12:40:52;;;;;;;7.13;4.90;;;22.30;49.20;;;;;;4997864;28;114586;-79
2023/06/08 12:43:21;;;;;;;7.13;5.03;;;22.30;49.60;;;;;;4985514;28;114960;-80